createdAt,value
2022-11-19T00:02:08.111Z,100589.38
2022-11-19T00:04:37.241Z,100585.78
2022-11-19T00:07:05.346Z,100593.69
2022-11-19T00:09:33.123Z,100594.59
2022-11-19T00:12:18.368Z,100606.09
2022-11-19T00:14:46.125Z,100604.34
2022-11-19T00:17:13.843Z,100603.44
2022-11-19T00:19:42.917Z,100593.75
2022-11-19T00:22:10.584Z,100600.84
2022-11-19T00:24:39.525Z,100595.47
2022-11-19T00:27:07.213Z,100598.00
2022-11-19T00:29:34.921Z,100603.28
2022-11-19T00:32:02.618Z,100597.91
2022-11-19T00:34:30.289Z,100606.69
2022-11-19T00:36:59.409Z,100598.72
2022-11-19T00:39:27.107Z,100602.16
2022-11-19T00:41:54.825Z,100596.09
2022-11-19T00:44:22.483Z,100602.38
2022-11-19T00:46:50.210Z,100599.78
2022-11-19T00:49:18.329Z,100608.59
2022-11-19T00:51:46.477Z,100605.03
2022-11-19T00:54:15.718Z,100609.47
2022-11-19T00:56:43.443Z,100604.13
2022-11-19T00:59:11.483Z,100611.22
2022-11-19T01:01:39.579Z,100612.88
2022-11-19T01:04:07.430Z,100617.28
2022-11-19T01:06:35.157Z,100615.47
2022-11-19T01:09:02.897Z,100623.47
2022-11-19T01:11:34.411Z,100627.06
2022-11-19T01:14:03.340Z,100632.28
2022-11-19T01:16:33.681Z,100640.22
2022-11-19T01:19:01.977Z,100630.44
2022-11-19T01:21:31.398Z,100640.16
2022-11-19T01:24:00.428Z,100637.53
2022-11-19T01:26:29.074Z,100639.38
2022-11-19T01:28:58.560Z,100642.03
2022-11-19T01:31:28.139Z,100652.66
2022-11-19T01:33:56.239Z,100658.00
2022-11-19T01:36:25.087Z,100649.09
2022-11-19T01:38:54.301Z,100663.25
2022-11-19T01:41:23.590Z,100663.19
2022-11-19T01:43:53.491Z,100659.63
2022-11-19T01:46:24.265Z,100666.72
2022-11-19T01:48:54.886Z,100656.09
2022-11-19T01:51:26.053Z,100660.56
2022-11-19T01:53:56.770Z,100665.84
2022-11-19T01:56:24.932Z,100669.25
2022-11-19T01:58:57.852Z,100669.25
2022-11-19T02:01:28.876Z,100678.06
2022-11-19T02:03:56.721Z,100668.19
2022-11-19T02:06:24.536Z,100676.94
2022-11-19T02:08:53.107Z,100672.41
2022-11-19T02:11:50.441Z,100679.41
2022-11-19T02:14:38.043Z,100675.91
2022-11-19T02:17:19.722Z,100678.53
2022-11-19T02:20:11.513Z,100687.44
2022-11-19T02:23:00.707Z,100692.66
2022-11-19T02:25:46.447Z,100684.78
2022-11-19T02:28:33.097Z,100685.69
2022-11-19T02:31:09.919Z,100694.41
2022-11-19T02:33:45.730Z,100696.94
2022-11-19T02:36:21.004Z,100696.06
2022-11-19T02:38:53.593Z,100696.88
2022-11-19T02:41:35.624Z,100704.81
2022-11-19T02:44:39.296Z,100706.63
2022-11-19T02:47:13.460Z,100707.41
2022-11-19T02:49:44.249Z,100711.66
2022-11-19T02:52:12.897Z,100707.13
2022-11-19T02:54:40.784Z,100713.28
2022-11-19T02:57:11.758Z,100711.50
2022-11-19T02:59:59.048Z,100717.84
2022-11-19T03:02:52.121Z,100710.03
2022-11-19T03:05:23.145Z,100710.94
2022-11-19T03:07:51.442Z,100706.47
2022-11-19T03:10:21.156Z,100712.75
2022-11-19T03:12:54.535Z,100709.28
2022-11-19T03:15:46.765Z,100708.44
2022-11-19T03:18:20.422Z,100712.78
2022-11-19T03:20:53.290Z,100712.75
2022-11-19T03:23:25.895Z,100710.97
2022-11-19T03:25:57.810Z,100708.41
2022-11-19T03:28:28.226Z,100706.69
2022-11-19T03:30:59.673Z,100710.16
2022-11-19T03:33:32.742Z,100706.63
2022-11-19T03:36:05.097Z,100714.41
2022-11-19T03:38:37.861Z,100715.09
2022-11-19T03:41:08.267Z,100709.00
2022-11-19T03:43:39.999Z,100709.84
2022-11-19T03:46:14.296Z,100720.44
2022-11-19T03:48:46.437Z,100719.47
2022-11-19T03:51:17.219Z,100723.69
2022-11-19T03:53:45.005Z,100728.16
2022-11-19T03:56:16.249Z,100723.00
2022-11-19T03:58:47.393Z,100721.25
2022-11-19T04:01:15.914Z,100719.47
2022-11-19T04:04:05.575Z,100728.44
2022-11-19T04:06:33.429Z,100722.31
2022-11-19T04:09:01.118Z,100731.88
2022-11-19T04:11:28.864Z,100729.19
2022-11-19T04:13:56.607Z,100731.84
2022-11-19T04:16:24.377Z,100736.22
2022-11-19T04:18:53.510Z,100747.66
2022-11-19T04:21:21.237Z,100739.75
2022-11-19T04:23:48.900Z,100748.44
2022-11-19T04:26:16.670Z,100745.00
2022-11-19T04:28:44.349Z,100753.78
2022-11-19T04:31:16.548Z,100745.00
2022-11-19T04:33:45.935Z,100746.78
2022-11-19T04:36:15.003Z,100752.22
2022-11-19T04:38:42.709Z,100745.81
2022-11-19T04:41:10.454Z,100746.47
2022-11-19T04:43:38.144Z,100753.44
2022-11-19T04:46:06.035Z,100759.72
2022-11-19T04:48:33.689Z,100752.56
2022-11-19T04:51:01.417Z,100766.38
2022-11-19T04:53:30.478Z,100774.38
2022-11-19T04:55:58.166Z,100777.09
2022-11-19T04:58:25.939Z,100771.88
2022-11-19T05:00:53.769Z,100782.34
2022-11-19T05:03:21.485Z,100777.00
2022-11-19T05:05:49.218Z,100788.66
2022-11-19T05:08:16.946Z,100780.72
2022-11-19T05:10:46.117Z,100794.72
2022-11-19T05:13:14.008Z,100782.38
2022-11-19T05:15:41.764Z,100782.06
2022-11-19T05:18:09.493Z,100793.41
2022-11-19T05:20:37.183Z,100789.84
2022-11-19T05:23:05.111Z,100793.34
2022-11-19T05:25:32.942Z,100795.88
2022-11-19T05:28:02.031Z,100798.69
2022-11-19T05:30:29.887Z,100804.03
2022-11-19T05:32:57.594Z,100806.00
2022-11-19T05:35:25.401Z,100805.03
2022-11-19T05:37:53.066Z,100814.66
2022-11-19T05:40:20.917Z,100815.53
2022-11-19T05:42:48.608Z,100811.03
2022-11-19T05:45:17.814Z,100821.44
2022-11-19T05:47:48.578Z,100817.03
2022-11-19T05:50:16.755Z,100820.59
2022-11-19T05:52:44.402Z,100823.94
2022-11-19T05:55:12.052Z,100824.97
2022-11-19T05:57:39.710Z,100816.00
2022-11-19T06:00:08.529Z,100826.63
2022-11-19T06:02:37.628Z,100822.88
2022-11-19T06:05:06.179Z,100834.22
2022-11-19T06:07:33.928Z,100828.09
2022-11-19T06:10:01.709Z,100838.81
2022-11-19T06:12:29.439Z,100837.81
2022-11-19T06:14:57.148Z,100838.66
2022-11-19T06:17:24.827Z,100843.97
2022-11-19T06:19:53.850Z,100846.50
2022-11-19T06:22:21.529Z,100854.44
2022-11-19T06:24:49.168Z,100855.44
2022-11-19T06:27:16.903Z,100865.84
2022-11-19T06:29:44.766Z,100859.75
2022-11-19T06:32:12.612Z,100865.03
2022-11-19T06:34:40.331Z,100866.81
2022-11-19T06:37:09.560Z,100859.00
2022-11-19T06:39:37.264Z,100866.97
2022-11-19T06:42:18.972Z,100861.72
2022-11-19T06:44:46.646Z,100873.84
2022-11-19T06:47:14.362Z,100878.00
2022-11-19T06:49:42.057Z,100877.25
2022-11-19T06:52:11.182Z,100883.38
2022-11-19T06:54:42.881Z,100885.22
2022-11-19T06:57:10.894Z,100885.88
2022-11-19T06:59:39.213Z,100886.69
2022-11-19T07:02:08.437Z,100884.31
2022-11-19T07:04:36.169Z,100894.13
2022-11-19T07:07:04.808Z,100899.59
2022-11-19T07:09:33.993Z,100909.31
2022-11-19T07:12:01.874Z,100904.78
2022-11-19T07:14:29.572Z,100905.53
2022-11-19T07:16:57.812Z,100917.91
2022-11-19T07:19:25.589Z,100909.97
2022-11-19T07:21:53.303Z,100914.28
2022-11-19T07:24:21.182Z,100923.22
2022-11-19T07:26:50.338Z,100920.72
2022-11-19T07:29:18.594Z,100929.66
2022-11-19T07:31:50.352Z,100927.94
2022-11-19T07:34:18.934Z,100931.34
2022-11-19T07:36:47.436Z,100934.88
2022-11-19T07:39:15.130Z,100946.84
2022-11-19T07:42:00.631Z,100939.88
2022-11-19T07:44:29.619Z,100947.56
2022-11-19T07:46:57.408Z,100950.03
2022-11-19T07:49:26.062Z,100945.81
2022-11-19T07:51:54.033Z,100946.91
2022-11-19T07:54:21.850Z,100945.19
2022-11-19T07:56:49.799Z,100952.47
2022-11-19T07:59:17.983Z,100956.97
2022-11-19T08:01:47.395Z,100958.72
2022-11-19T08:04:15.120Z,100964.81
2022-11-19T08:06:42.861Z,100971.84
2022-11-19T08:09:10.594Z,100975.06
2022-11-19T08:11:38.262Z,100984.72
2022-11-19T08:14:05.949Z,100981.16
2022-11-19T08:16:51.787Z,100981.97
2022-11-19T08:19:21.135Z,100979.31
2022-11-19T08:21:49.239Z,100987.41
2022-11-19T08:24:19.632Z,100994.34
2022-11-19T08:26:48.889Z,100990.50
2022-11-19T08:29:18.501Z,100996.75
2022-11-19T08:31:47.486Z,100995.09
2022-11-19T08:34:15.818Z,101001.31
2022-11-19T08:36:45.327Z,101007.63
2022-11-19T08:39:13.271Z,101004.50
2022-11-19T08:41:58.603Z,101016.03
2022-11-19T08:44:26.398Z,101008.50
2022-11-19T08:46:54.157Z,101013.75
2022-11-19T08:49:21.902Z,101009.81
2022-11-19T08:51:51.000Z,101012.47
2022-11-19T08:54:19.290Z,101010.72
2022-11-19T08:56:47.349Z,101016.75
2022-11-19T08:59:15.113Z,101017.69
2022-11-19T09:01:42.814Z,101016.09
2022-11-19T09:04:10.602Z,101022.94
2022-11-19T09:06:38.288Z,101024.63
2022-11-19T09:09:07.477Z,101022.81
2022-11-19T09:11:41.343Z,101037.13
2022-11-19T09:14:10.861Z,101034.72
2022-11-19T09:16:38.678Z,101034.78
2022-11-19T09:19:06.395Z,101047.22
2022-11-19T09:21:34.126Z,101045.31
2022-11-19T09:24:01.860Z,101046.84
2022-11-19T09:26:30.944Z,101048.56
2022-11-19T09:28:58.688Z,101044.16
2022-11-19T09:31:26.412Z,101053.00
2022-11-19T09:33:55.573Z,101053.13
2022-11-19T09:36:23.401Z,101051.34
2022-11-19T09:38:51.133Z,101052.72
2022-11-19T09:41:40.668Z,101060.00
2022-11-19T09:44:20.766Z,101064.34
2022-11-19T09:46:58.324Z,101055.69
2022-11-19T09:49:29.879Z,101066.56
2022-11-19T09:52:04.835Z,101070.88
2022-11-19T09:54:33.205Z,101063.91
2022-11-19T09:57:11.080Z,101068.16
2022-11-19T09:59:41.436Z,101073.94
2022-11-19T10:02:18.254Z,101078.44
2022-11-19T10:04:48.267Z,101075.06
2022-11-19T10:07:24.996Z,101081.38
2022-11-19T10:10:12.756Z,101085.19
2022-11-19T10:13:11.607Z,101096.03
2022-11-19T10:15:54.421Z,101088.88
2022-11-19T10:18:30.721Z,101094.97
2022-11-19T10:21:03.790Z,101090.66
2022-11-19T10:23:47.032Z,101090.81
2022-11-19T10:26:18.061Z,101090.00
2022-11-19T10:28:54.912Z,101091.81
2022-11-19T10:31:30.402Z,101088.19
2022-11-19T10:34:05.908Z,101094.31
2022-11-19T10:36:41.242Z,101101.13
2022-11-19T10:39:18.162Z,101093.16
2022-11-19T10:41:53.218Z,101090.03
2022-11-19T10:44:41.050Z,101093.72
2022-11-19T10:47:14.572Z,101095.81
2022-11-19T10:49:43.752Z,101080.03
2022-11-19T10:52:20.395Z,101092.50
2022-11-19T10:54:49.846Z,101087.63
2022-11-19T10:57:20.602Z,101090.44
2022-11-19T10:59:52.284Z,101090.63
2022-11-19T11:02:28.167Z,101086.31
2022-11-19T11:05:18.274Z,101082.91
2022-11-19T11:07:55.033Z,101082.94
2022-11-19T11:10:36.009Z,101082.22
2022-11-19T11:13:32.958Z,101071.97
2022-11-19T11:16:06.385Z,101066.09
2022-11-19T11:18:34.558Z,101073.97
2022-11-19T11:21:02.376Z,101071.34
2022-11-19T11:23:31.237Z,101072.00
2022-11-19T11:26:06.213Z,101071.78
2022-11-19T11:28:34.584Z,101064.72
2022-11-19T11:31:05.406Z,101076.31
2022-11-19T11:33:36.768Z,101075.44
2022-11-19T11:36:08.278Z,101071.97
2022-11-19T11:38:43.373Z,101080.00
2022-11-19T11:42:02.392Z,101074.91
2022-11-19T11:44:04.102Z,101084.03
2022-11-19T11:46:39.449Z,101081.59
2022-11-19T11:49:12.721Z,101084.41
2022-11-19T11:51:40.910Z,101078.31
2022-11-19T11:54:18.409Z,101081.91
2022-11-19T11:56:47.045Z,101081.97
2022-11-19T11:59:22.624Z,101072.97
2022-11-19T12:02:04.516Z,101073.81
2022-11-19T12:04:32.781Z,101069.50
2022-11-19T12:07:13.827Z,101064.28
2022-11-19T12:09:50.412Z,101068.72
2022-11-19T12:12:28.639Z,101057.28
2022-11-19T12:15:01.801Z,101066.31
2022-11-19T12:17:44.188Z,101061.97
2022-11-19T12:20:24.860Z,101054.88
2022-11-19T12:23:07.953Z,101053.22
2022-11-19T12:25:41.138Z,101049.59
2022-11-19T12:28:29.277Z,101053.25
2022-11-19T12:31:06.526Z,101052.25
2022-11-19T12:33:54.394Z,101058.44
2022-11-19T12:36:31.214Z,101054.03
2022-11-19T12:39:04.062Z,101054.06
2022-11-19T12:41:53.415Z,101061.25
2022-11-19T12:44:33.246Z,101061.88
2022-11-19T12:47:10.708Z,101065.38
2022-11-19T12:50:01.024Z,101065.69
2022-11-19T12:52:41.508Z,101062.13
2022-11-19T12:55:18.806Z,101067.34
2022-11-19T12:57:54.789Z,101067.88
2022-11-19T13:00:24.198Z,101060.94
2022-11-19T13:03:01.384Z,101067.22
2022-11-19T13:05:39.613Z,101064.63
2022-11-19T13:08:15.600Z,101060.94
2022-11-19T13:10:50.667Z,101064.66
2022-11-19T13:13:23.987Z,101069.16
2022-11-19T13:15:59.983Z,101069.94
2022-11-19T13:18:32.021Z,101062.84
2022-11-19T13:21:04.902Z,101063.00
2022-11-19T13:23:38.381Z,101069.25
2022-11-19T13:26:12.068Z,101069.97
2022-11-19T13:28:45.837Z,101069.91
2022-11-19T13:31:19.905Z,101068.00
2022-11-19T13:33:52.850Z,101076.03
2022-11-19T13:36:28.864Z,101080.66
2022-11-19T13:39:02.229Z,101085.16
2022-11-19T13:41:34.260Z,101081.38
2022-11-19T13:44:20.053Z,101080.59
2022-11-19T13:46:51.393Z,101079.84
2022-11-19T13:49:24.172Z,101075.41
2022-11-19T13:51:57.864Z,101085.97
2022-11-19T13:54:28.348Z,101088.75
2022-11-19T13:57:00.335Z,101084.25
2022-11-19T13:59:36.769Z,101081.59
2022-11-19T14:02:42.328Z,101079.75
2022-11-19T14:05:36.609Z,101080.75
2022-11-19T14:08:24.818Z,101077.25
2022-11-19T14:11:09.299Z,101075.53
2022-11-19T14:13:55.275Z,101074.78
2022-11-19T14:16:52.270Z,101082.66
2022-11-19T14:19:37.654Z,101076.38
2022-11-19T14:22:50.202Z,101072.69
2022-11-19T14:26:02.596Z,101086.50
2022-11-19T14:28:47.991Z,101089.06
2022-11-19T14:31:16.511Z,101088.09
2022-11-19T14:34:01.274Z,101096.81
2022-11-19T14:36:48.480Z,101088.91
2022-11-19T14:39:23.198Z,101092.44
2022-11-19T14:42:13.644Z,101092.28
2022-11-19T14:44:41.858Z,101089.63
2022-11-19T14:47:33.445Z,101093.31
2022-11-19T14:50:04.061Z,101095.06
2022-11-19T14:52:34.896Z,101107.25
2022-11-19T14:55:06.727Z,101105.47
2022-11-19T14:57:38.755Z,101108.84
2022-11-19T15:00:27.032Z,101106.94
2022-11-19T15:02:55.437Z,101104.94
2022-11-19T15:05:29.118Z,101110.13
2022-11-19T15:08:31.051Z,101110.03
2022-11-19T15:11:08.115Z,101104.69
2022-11-19T15:13:39.184Z,101108.97
2022-11-19T15:16:13.266Z,101113.28
2022-11-19T15:19:08.959Z,101117.59
2022-11-19T15:21:54.099Z,101116.66
2022-11-19T15:24:36.016Z,101119.09
2022-11-19T15:27:15.897Z,101115.44
2022-11-19T15:30:05.526Z,101116.91
2022-11-19T15:32:46.671Z,101114.78
2022-11-19T15:35:34.220Z,101119.63
2022-11-19T15:38:09.393Z,101129.13
2022-11-19T15:40:40.666Z,101138.72
2022-11-19T15:43:17.969Z,101138.50
2022-11-19T15:45:52.331Z,101132.41
2022-11-19T15:48:24.831Z,101136.72
2022-11-19T15:50:53.220Z,101128.72
2022-11-19T15:53:23.063Z,101128.81
2022-11-19T15:55:54.676Z,101125.28
2022-11-19T15:58:36.252Z,101124.50
2022-11-19T16:01:06.867Z,101127.19
2022-11-19T16:03:38.147Z,101123.50
2022-11-19T16:06:10.208Z,101129.72
2022-11-19T16:08:39.137Z,101122.50
2022-11-19T16:11:24.388Z,101129.41
2022-11-19T16:14:10.734Z,101134.72
2022-11-19T16:16:58.312Z,101139.03
2022-11-19T16:19:25.969Z,101123.25
2022-11-19T16:21:58.035Z,101123.22
2022-11-19T16:24:45.984Z,101129.31
2022-11-19T16:27:20.945Z,101137.06
2022-11-19T16:29:48.738Z,101136.22
2022-11-19T16:32:19.876Z,101134.53
2022-11-19T16:34:47.840Z,101128.59
2022-11-19T16:37:17.074Z,101126.09
2022-11-19T16:39:51.396Z,101123.50
2022-11-19T16:42:26.403Z,101123.75
2022-11-19T16:44:56.346Z,101130.25
2022-11-19T16:47:30.878Z,101122.34
2022-11-19T16:50:07.797Z,101126.75
2022-11-19T16:52:40.294Z,101128.66
2022-11-19T16:55:28.869Z,101124.25
2022-11-19T16:57:58.769Z,101126.03
2022-11-19T17:00:31.544Z,101129.63
2022-11-19T17:03:02.123Z,101130.38
2022-11-19T17:05:29.825Z,101133.06
2022-11-19T17:08:06.861Z,101128.91
2022-11-19T17:10:35.420Z,101123.59
2022-11-19T17:13:16.044Z,101128.22
2022-11-19T17:15:45.168Z,101123.66
2022-11-19T17:18:20.161Z,101129.88
2022-11-19T17:20:52.548Z,101136.81
2022-11-19T17:23:22.301Z,101133.81
2022-11-19T17:25:52.633Z,101131.84
2022-11-19T17:28:22.246Z,101145.78
2022-11-19T17:30:50.639Z,101132.50
2022-11-19T17:33:24.322Z,101140.47
2022-11-19T17:35:52.961Z,101139.31
2022-11-19T17:38:27.120Z,101140.28
2022-11-19T17:40:57.602Z,101142.81
2022-11-19T17:43:48.150Z,101146.13
2022-11-19T17:46:15.922Z,101144.72
2022-11-19T17:48:46.414Z,101153.50
2022-11-19T17:51:16.501Z,101157.00
2022-11-19T17:53:44.304Z,101155.25
2022-11-19T17:56:20.283Z,101158.78
2022-11-19T17:58:48.189Z,101152.50
2022-11-19T18:01:20.217Z,101157.66
2022-11-19T18:03:55.234Z,101153.16
2022-11-19T18:06:23.031Z,101145.22
2022-11-19T18:08:50.786Z,101149.50
2022-11-19T18:11:20.262Z,101156.38
2022-11-19T18:13:50.879Z,101151.88
2022-11-19T18:16:21.596Z,101158.78
2022-11-19T18:18:50.776Z,101162.94
2022-11-19T18:21:21.197Z,101164.72
2022-11-19T18:23:50.592Z,101149.75
2022-11-19T18:26:19.837Z,101165.50
2022-11-19T18:28:49.096Z,101155.41
2022-11-19T18:31:20.445Z,101159.69
2022-11-19T18:33:49.197Z,101153.50
2022-11-19T18:36:19.033Z,101162.22
2022-11-19T18:38:46.978Z,101163.91
2022-11-19T18:41:16.117Z,101163.91
2022-11-19T18:44:01.169Z,101163.00
2022-11-19T18:46:28.856Z,101160.28
2022-11-19T18:48:56.733Z,101156.63
2022-11-19T18:51:27.517Z,101163.41
2022-11-19T18:53:55.226Z,101156.38
2022-11-19T18:56:22.976Z,101157.78
2022-11-19T18:58:50.782Z,101151.59
2022-11-19T19:01:18.761Z,101157.03
2022-11-19T19:03:46.573Z,101166.88
2022-11-19T19:06:15.732Z,101150.22
2022-11-19T19:08:49.857Z,101162.59
2022-11-19T19:11:35.198Z,101157.38
2022-11-19T19:14:07.853Z,101150.31
2022-11-19T19:16:36.307Z,101151.84
2022-11-19T19:19:07.211Z,101155.19
2022-11-19T19:21:35.361Z,101155.91
2022-11-19T19:24:07.207Z,101160.19
2022-11-19T19:26:35.002Z,101156.78
2022-11-19T19:29:03.276Z,101153.25
2022-11-19T19:31:31.333Z,101147.00
2022-11-19T19:33:59.415Z,101153.06
2022-11-19T19:36:27.846Z,101151.31
2022-11-19T19:38:55.833Z,101152.19
2022-11-19T19:41:27.076Z,101146.00
2022-11-19T19:43:57.254Z,101152.75
2022-11-19T19:46:25.522Z,101151.84
2022-11-19T19:48:55.044Z,101147.53
2022-11-19T19:51:24.724Z,101146.47
2022-11-19T19:53:53.036Z,101144.69
2022-11-19T19:56:23.252Z,101147.31
2022-11-19T19:58:53.124Z,101148.97
2022-11-19T20:01:24.201Z,101150.81
2022-11-19T20:03:54.693Z,101150.78
2022-11-19T20:06:24.473Z,101151.56
2022-11-19T20:08:52.422Z,101156.56
2022-11-19T20:11:21.670Z,101149.41
2022-11-19T20:13:49.841Z,101151.94
2022-11-19T20:16:20.918Z,101148.38
2022-11-19T20:18:50.832Z,101160.78
2022-11-19T20:21:21.363Z,101153.75
2022-11-19T20:23:49.399Z,101163.38
2022-11-19T20:26:28.539Z,101165.13
2022-11-19T20:28:57.660Z,101166.88
2022-11-19T20:31:29.008Z,101166.84
2022-11-19T20:33:58.785Z,101163.09
2022-11-19T20:36:29.113Z,101175.44
2022-11-19T20:38:58.907Z,101170.25
2022-11-19T20:41:45.718Z,101164.88
2022-11-19T20:44:21.630Z,101161.38
2022-11-19T20:46:53.317Z,101169.16
2022-11-19T20:49:23.708Z,101169.91
2022-11-19T20:51:52.904Z,101167.28
2022-11-19T20:54:21.419Z,101175.19
2022-11-19T20:56:49.951Z,101174.28
2022-11-19T20:59:20.146Z,101162.00
2022-11-19T21:01:49.465Z,101156.78
2022-11-19T21:04:19.434Z,101161.19
2022-11-19T21:06:47.717Z,101161.72
2022-11-19T21:09:16.419Z,101161.63
2022-11-19T21:11:44.270Z,101155.50
2022-11-19T21:14:12.263Z,101141.41
2022-11-19T21:16:40.141Z,101141.25
2022-11-19T21:19:08.096Z,101128.88
2022-11-19T21:21:37.378Z,101144.66
2022-11-19T21:24:05.767Z,101152.56
2022-11-19T21:26:33.762Z,101152.63
2022-11-19T21:29:01.656Z,101149.88
2022-11-19T21:31:39.574Z,101145.41
2022-11-19T21:34:08.449Z,101147.16
2022-11-19T21:36:38.159Z,101147.94
2022-11-19T21:39:07.297Z,101147.16
2022-11-19T21:41:35.228Z,101140.00
2022-11-19T21:44:03.815Z,101148.72
2022-11-19T21:46:32.019Z,101138.25
2022-11-19T21:49:00.194Z,101150.38
2022-11-19T21:51:28.097Z,101148.63
2022-11-19T21:53:58.475Z,101138.97
2022-11-19T21:56:27.971Z,101138.03
2022-11-19T22:02:15.700Z,101150.28
2022-11-19T22:04:43.582Z,101152.84
2022-11-19T22:07:11.552Z,101164.22
2022-11-19T22:09:40.810Z,101157.09
2022-11-19T22:12:08.773Z,101155.81
2022-11-19T22:14:36.544Z,101159.59
2022-11-19T22:17:04.547Z,101165.88
2022-11-19T22:19:32.409Z,101156.28
2022-11-19T22:22:00.311Z,101160.69
2022-11-19T22:24:28.116Z,101165.13
2022-11-19T22:26:57.415Z,101163.47
2022-11-19T22:29:25.505Z,101159.09
2022-11-19T22:31:53.329Z,101141.44
2022-11-19T22:34:21.149Z,101138.81
2022-11-19T22:36:48.987Z,101134.97
2022-11-19T22:39:18.522Z,101135.75
2022-11-19T22:41:46.587Z,101138.28
2022-11-19T22:44:18.429Z,101134.75
2022-11-19T22:46:46.329Z,101142.63
2022-11-19T22:49:14.262Z,101140.91
2022-11-19T22:51:42.196Z,101149.59
2022-11-19T22:54:11.745Z,101142.53
2022-11-19T22:56:39.532Z,101139.78
2022-11-19T22:59:07.247Z,101145.09
2022-11-19T23:01:37.117Z,101140.72
2022-11-19T23:04:07.683Z,101138.03
2022-11-19T23:06:36.459Z,101134.47
2022-11-19T23:09:05.020Z,101130.00
2022-11-19T23:11:50.711Z,101135.25
2022-11-19T23:14:20.455Z,101130.00
2022-11-19T23:16:49.863Z,101140.47
2022-11-19T23:19:19.373Z,101139.38
2022-11-19T23:21:47.828Z,101142.75
2022-11-19T23:24:15.810Z,101139.31
2022-11-19T23:26:43.541Z,101138.56
2022-11-19T23:29:11.252Z,101127.03
2022-11-19T23:31:40.147Z,101129.63
2022-11-19T23:34:09.702Z,101122.56
2022-11-19T23:36:39.553Z,101119.00
2022-11-19T23:39:09.902Z,101126.84
2022-11-19T23:41:37.747Z,101121.53
2022-11-19T23:44:05.636Z,101128.47
2022-11-19T23:46:35.328Z,101136.44
2022-11-19T23:49:03.547Z,101125.03
2022-11-19T23:51:34.558Z,101127.47
2022-11-19T23:54:02.548Z,101130.09
2022-11-19T23:56:32.128Z,101120.38
2022-11-19T23:59:02.106Z,101121.19
